createdAt,value
2022-08-05T00:00:48.360Z,54.6
2022-08-05T00:01:49.134Z,53.6
2022-08-05T00:02:43.855Z,53.5
2022-08-05T00:03:41.723Z,52.6
2022-08-05T00:04:41.738Z,52.1
2022-08-05T00:06:06.562Z,52.1
2022-08-05T00:06:41.726Z,51.7
2022-08-05T00:08:00.136Z,51.4
2022-08-05T00:08:41.718Z,51.4
2022-08-05T00:09:41.730Z,51.4
2022-08-05T00:10:41.763Z,51.4
2022-08-05T00:11:48.399Z,54.4
2022-08-05T00:12:55.833Z,55
2022-08-05T00:13:41.720Z,53.7
2022-08-05T00:14:41.723Z,55.1
2022-08-05T00:15:54.913Z,53.3
2022-08-05T00:16:52.804Z,54.1
2022-08-05T00:17:41.737Z,53.2
2022-08-05T00:18:42.197Z,54.6
2022-08-05T00:19:45.552Z,52.7
2022-08-05T00:20:41.734Z,52.8
2022-08-05T00:21:42.551Z,52.4
2022-08-05T00:22:41.726Z,52.9
2022-08-05T00:23:45.862Z,52.4
2022-08-05T00:24:42.473Z,51.8
2022-08-05T00:25:41.757Z,51.4
2022-08-05T00:26:50.536Z,51.3
2022-08-05T00:27:42.904Z,51.2
2022-08-05T00:28:42.191Z,50.9
2022-08-05T00:29:41.755Z,50.7
2022-08-05T00:30:44.023Z,50.7
2022-08-05T00:32:10.032Z,50.6
2022-08-05T00:32:41.738Z,50.8
2022-08-05T00:34:53.819Z,50.4
2022-08-05T00:34:54.292Z,51.9
2022-08-05T00:35:47.812Z,51.3
2022-08-05T00:37:10.486Z,51.1
2022-08-05T00:37:52.825Z,51.2
2022-08-05T00:38:41.737Z,51.1
2022-08-05T00:39:44.528Z,50.8
2022-08-05T00:41:51.675Z,50.7
2022-08-05T00:42:41.733Z,50.7
2022-08-05T00:43:47.317Z,50.7
2022-08-05T00:44:41.741Z,50.4
2022-08-05T00:45:43.821Z,50.7
2022-08-05T00:46:43.475Z,51.3
2022-08-05T00:47:56.763Z,51.2
2022-08-05T00:48:50.761Z,51.1
2022-08-05T00:49:51.112Z,51.2
2022-08-05T00:50:44.067Z,51.8
2022-08-05T00:51:51.080Z,51.8
2022-08-05T00:52:41.744Z,51.6
2022-08-05T00:54:00.841Z,51.5
2022-08-05T00:54:41.741Z,51.5
2022-08-05T00:55:42.843Z,51.3
2022-08-05T00:56:41.754Z,51.4
2022-08-05T00:57:58.674Z,51.3
2022-08-05T00:58:42.584Z,51.3
2022-08-05T00:59:44.334Z,51.4
2022-08-05T01:00:42.225Z,51.4
2022-08-05T01:01:42.605Z,51.3
2022-08-05T01:02:41.742Z,51.3
2022-08-05T01:03:41.769Z,51
2022-08-05T01:04:42.105Z,51.1
2022-08-05T01:05:41.749Z,51.1
2022-08-05T01:06:41.748Z,51.2
2022-08-05T01:08:30.251Z,50.9
2022-08-05T01:08:44.220Z,51
2022-08-05T01:09:41.746Z,50.9
2022-08-05T01:10:41.767Z,51
2022-08-05T01:11:41.762Z,50.9
2022-08-05T01:12:41.749Z,50.8
2022-08-05T01:13:57.811Z,50.7
2022-08-05T01:14:41.746Z,50.8
2022-08-05T01:15:41.776Z,50.6
2022-08-05T01:16:41.749Z,50.6
2022-08-05T01:17:43.956Z,50.7
2022-08-05T01:18:41.987Z,50.6
2022-08-05T01:20:00.995Z,50.7
2022-08-05T01:20:41.784Z,51
2022-08-05T01:21:41.769Z,50.8
2022-08-05T01:22:41.748Z,50.8
2022-08-05T01:23:41.747Z,50.9
2022-08-05T01:24:41.753Z,50.8
2022-08-05T01:25:41.772Z,51
2022-08-05T01:26:41.753Z,51.9
2022-08-05T01:27:54.876Z,56.8
2022-08-05T01:28:48.165Z,54.8
2022-08-05T01:29:43.016Z,57.3
2022-08-05T01:30:53.891Z,55.6
2022-08-05T01:31:42.666Z,54.5
2022-08-05T01:32:41.752Z,53.9
2022-08-05T01:33:41.757Z,53.4
2022-08-05T01:34:41.769Z,52.9
2022-08-05T01:35:51.343Z,52.9
2022-08-05T01:36:42.214Z,52.5
2022-08-05T01:37:44.332Z,52.4
2022-08-05T01:38:41.754Z,52.2
2022-08-05T01:39:47.006Z,52
2022-08-05T01:40:41.764Z,51.8
2022-08-05T01:41:44.450Z,51.9
2022-08-05T01:42:41.756Z,51.8
2022-08-05T01:43:41.809Z,51.8
2022-08-05T01:44:41.761Z,51.7
2022-08-05T01:45:43.140Z,52.4
2022-08-05T01:46:46.127Z,56.6
2022-08-05T01:47:43.351Z,58.3
2022-08-05T01:48:41.756Z,60.3
2022-08-05T01:50:00.428Z,61.8
2022-08-05T01:50:41.766Z,60.3
2022-08-05T01:51:41.759Z,58.7
2022-08-05T01:52:41.763Z,57.6
2022-08-05T01:53:57.516Z,60.1
2022-08-05T01:55:41.763Z,64.1
2022-08-05T01:58:09.567Z,64.8
2022-08-05T01:58:13.577Z,64
2022-08-05T01:58:44.776Z,64.7
2022-08-05T01:59:41.824Z,66
2022-08-05T02:00:41.783Z,66.8
2022-08-05T02:01:41.808Z,68.5
2022-08-05T02:02:46.378Z,68.8
2022-08-05T02:03:41.771Z,69.9
2022-08-05T02:04:41.765Z,70.7
2022-08-05T02:05:42.675Z,71.3
2022-08-05T02:06:41.807Z,71.6
2022-08-05T02:07:41.769Z,72.1
2022-08-05T02:08:54.816Z,70.3
2022-08-05T02:09:41.770Z,68.6
2022-08-05T02:10:41.775Z,65.9
2022-08-05T02:11:42.219Z,65.8
2022-08-05T02:12:41.762Z,65.2
2022-08-05T02:13:53.800Z,65
2022-08-05T02:14:41.781Z,65.8
2022-08-05T02:15:41.788Z,66.3
2022-08-05T02:16:41.779Z,67
2022-08-05T02:18:28.163Z,68.1
2022-08-05T02:18:42.134Z,68.3
2022-08-05T02:19:47.403Z,68.9
2022-08-05T02:20:41.767Z,69.2
2022-08-05T02:21:43.551Z,69.8
2022-08-05T02:22:41.775Z,70.1
2022-08-05T02:23:41.789Z,69.1
2022-08-05T02:24:41.790Z,68.4
2022-08-05T02:25:49.222Z,68.9
2022-08-05T02:26:53.816Z,68.5
2022-08-05T02:27:58.443Z,67.3
2022-08-05T02:28:38.422Z,66.9
2022-08-05T02:29:58.487Z,66
2022-08-05T02:30:51.640Z,67.2
2022-08-05T02:31:41.777Z,66
2022-08-05T02:32:41.765Z,65.1
2022-08-05T02:33:41.779Z,64.4
2022-08-05T02:34:41.779Z,63.8
2022-08-05T02:35:50.899Z,62.5
2022-08-05T02:36:41.784Z,62.4
2022-08-05T02:37:41.782Z,60.8
2022-08-05T02:38:41.787Z,61.5
2022-08-05T02:39:41.833Z,61.2
2022-08-05T02:40:41.790Z,60.9
2022-08-05T02:41:58.084Z,61
2022-08-05T02:42:41.783Z,61.8
2022-08-05T02:44:02.243Z,62.6
2022-08-05T02:44:41.789Z,62.3
2022-08-05T02:45:52.411Z,64
2022-08-05T02:46:53.721Z,63
2022-08-05T02:48:06.465Z,63.2
2022-08-05T02:48:41.779Z,64.4
2022-08-05T02:49:41.796Z,65.1
2022-08-05T02:50:43.602Z,65.1
2022-08-05T02:52:02.892Z,66.1
2022-08-05T02:52:41.783Z,67
2022-08-05T02:53:41.793Z,67.3
2022-08-05T02:54:42.656Z,66.4
2022-08-05T02:55:54.651Z,67.5
2022-08-05T02:56:41.792Z,67.8
2022-08-05T02:58:09.288Z,67.4
2022-08-05T02:58:43.718Z,67.7
2022-08-05T02:59:48.082Z,67.8
2022-08-05T03:00:41.796Z,67.2
2022-08-05T03:01:41.882Z,65
2022-08-05T03:02:42.767Z,67.1
2022-08-05T03:04:03.217Z,66.2
2022-08-05T03:04:41.778Z,66.1
2022-08-05T03:06:54.000Z,65.6
2022-08-05T03:06:57.245Z,63.1
2022-08-05T03:08:06.897Z,63.4
2022-08-05T03:08:42.722Z,63.5
2022-08-05T03:09:43.429Z,60.8
2022-08-05T03:10:41.798Z,61.6
2022-08-05T03:11:56.921Z,60.3
2022-08-05T03:12:41.789Z,58.6
2022-08-05T03:13:52.082Z,59.2
2022-08-05T03:14:46.214Z,57.9
2022-08-05T03:15:41.782Z,57.5
2022-08-05T03:16:41.787Z,58
2022-08-05T03:17:44.847Z,57.6
2022-08-05T03:18:42.155Z,57.8
2022-08-05T03:19:42.088Z,56.4
2022-08-05T03:20:48.657Z,57.9
2022-08-05T03:21:48.801Z,57.1
2022-08-05T03:22:44.165Z,57.3
2022-08-05T03:23:41.787Z,57
2022-08-05T03:24:41.800Z,57.3
2022-08-05T03:26:05.005Z,56.3
2022-08-05T03:26:41.795Z,55.3
2022-08-05T03:27:59.271Z,54.5
2022-08-05T03:28:41.812Z,54.4
2022-08-05T03:29:45.972Z,53.8
2022-08-05T03:30:42.412Z,53.4
2022-08-05T03:31:57.006Z,53.3
2022-08-05T03:32:41.798Z,52.9
2022-08-05T03:33:51.054Z,52.6
2022-08-05T03:34:41.792Z,52.3
2022-08-05T03:35:41.983Z,52.1
2022-08-05T03:36:41.798Z,51.8
2022-08-05T03:37:46.687Z,51.7
2022-08-05T03:38:41.813Z,51.6
2022-08-05T03:39:47.381Z,51.5
2022-08-05T03:40:45.311Z,51.4
2022-08-05T03:41:45.397Z,51.2
2022-08-05T03:42:51.747Z,51
2022-08-05T03:44:09.701Z,51
2022-08-05T03:44:41.802Z,50.9
2022-08-05T03:45:58.365Z,51
2022-08-05T03:46:41.809Z,50.9
2022-08-05T03:47:42.027Z,50.9
2022-08-05T03:48:41.799Z,50.7
2022-08-05T03:49:51.316Z,50.9
2022-08-05T03:50:41.799Z,50.8
2022-08-05T03:52:39.199Z,50.8
2022-08-05T03:55:00.056Z,50.9
2022-08-05T03:55:06.867Z,50.8
2022-08-05T03:55:50.066Z,50.8
2022-08-05T03:56:05.120Z,50.6
2022-08-05T03:56:41.808Z,50.9
2022-08-05T03:57:44.346Z,50.9
2022-08-05T03:58:41.801Z,50.8
2022-08-05T03:59:47.374Z,50.7
2022-08-05T04:00:41.904Z,50.7
2022-08-05T04:01:41.919Z,50.7
2022-08-05T04:02:52.030Z,50.7
2022-08-05T04:03:41.814Z,50.7
2022-08-05T04:04:41.812Z,50.7
2022-08-05T04:05:41.808Z,50.4
2022-08-05T04:06:47.544Z,53.4
2022-08-05T04:07:58.129Z,53.4
2022-08-05T04:08:41.804Z,53.1
2022-08-05T04:09:53.055Z,52.5
2022-08-05T04:10:41.806Z,52.2
2022-08-05T04:11:50.921Z,52
2022-08-05T04:13:51.304Z,52.4
2022-08-05T04:14:41.808Z,52.4
2022-08-05T04:16:03.095Z,52.1
2022-08-05T04:16:41.841Z,51.7
2022-08-05T04:17:56.825Z,51.6
2022-08-05T04:18:41.838Z,51.6
2022-08-05T04:19:41.810Z,51.5
2022-08-05T04:20:41.823Z,51
2022-08-05T04:22:09.158Z,50.9
2022-08-05T04:22:41.818Z,51
2022-08-05T04:24:05.643Z,51
2022-08-05T04:24:44.294Z,50.8
2022-08-05T04:26:00.324Z,50.8
2022-08-05T04:26:41.816Z,50.8
2022-08-05T04:27:43.703Z,50.8
2022-08-05T04:28:50.762Z,51
2022-08-05T04:29:41.821Z,50.7
2022-08-05T04:30:42.994Z,50.5
2022-08-05T04:31:42.903Z,50.5
2022-08-05T04:32:41.817Z,50.6
2022-08-05T04:34:18.181Z,50.3
2022-08-05T04:34:43.305Z,50.5
2022-08-05T04:36:16.556Z,50
2022-08-05T04:36:45.618Z,52.4
2022-08-05T04:38:02.038Z,54.3
2022-08-05T04:38:42.153Z,56.6
2022-08-05T04:39:41.904Z,59.6
2022-08-05T04:40:47.830Z,62
2022-08-05T04:41:41.831Z,61.2
2022-08-05T04:42:41.823Z,59.1
2022-08-05T04:43:46.753Z,58.1
2022-08-05T04:44:41.851Z,58
2022-08-05T04:45:48.508Z,57
2022-08-05T04:46:41.831Z,57.7
2022-08-05T04:47:42.859Z,57.6
2022-08-05T04:48:41.822Z,57.7
2022-08-05T04:50:01.495Z,56.2
2022-08-05T04:51:02.614Z,55.3
2022-08-05T04:51:41.826Z,55.2
2022-08-05T04:52:41.821Z,54.9
2022-08-05T04:53:41.820Z,54.2
2022-08-05T04:54:41.829Z,54.4
2022-08-05T04:56:14.588Z,53.7
2022-08-05T04:56:41.838Z,53.3
2022-08-05T04:57:41.827Z,53.1
2022-08-05T04:58:41.835Z,52.7
2022-08-05T04:59:41.823Z,52.8
2022-08-05T05:00:41.849Z,52.4
2022-08-05T05:02:07.178Z,52.3
2022-08-05T05:02:43.410Z,52.1
2022-08-05T05:03:42.780Z,52
2022-08-05T05:04:47.562Z,51.7
2022-08-05T05:06:39.461Z,51.7
2022-08-05T05:06:44.853Z,51.5
2022-08-05T05:07:52.731Z,51.5
2022-08-05T05:08:42.814Z,51.2
2022-08-05T05:09:41.858Z,51.6
2022-08-05T05:10:41.829Z,51.3
2022-08-05T05:11:54.432Z,51.3
2022-08-05T05:12:41.821Z,51.4
2022-08-05T05:13:43.252Z,51.1
2022-08-05T05:14:49.396Z,51.6
2022-08-05T05:15:57.198Z,51.4
2022-08-05T05:16:41.838Z,51
2022-08-05T05:17:56.249Z,51.5
2022-08-05T05:18:56.953Z,52.1
2022-08-05T05:19:47.472Z,52.5
2022-08-05T05:20:41.825Z,52.8
2022-08-05T05:21:41.872Z,53.9
2022-08-05T05:22:44.064Z,52.2
2022-08-05T05:24:03.895Z,53.4
2022-08-05T05:24:57.373Z,52.3
2022-08-05T05:25:41.833Z,54.3
2022-08-05T05:26:41.914Z,54.9
2022-08-05T05:27:45.932Z,54.6
2022-08-05T05:28:42.863Z,55.8
2022-08-05T05:30:04.893Z,54.4
2022-08-05T05:30:41.847Z,54.2
2022-08-05T05:31:41.850Z,55.5
2022-08-05T05:32:41.847Z,56.3
2022-08-05T05:33:58.911Z,54.9
2022-08-05T05:34:41.840Z,55.4
2022-08-05T05:35:42.531Z,56.5
2022-08-05T05:36:41.853Z,55.3
2022-08-05T05:37:59.088Z,56.5
2022-08-05T05:38:41.838Z,57.9
2022-08-05T05:39:42.478Z,55.9
2022-08-05T05:40:49.910Z,55.4
2022-08-05T05:41:42.036Z,56.7
2022-08-05T05:42:41.850Z,57
2022-08-05T05:43:58.493Z,55.5
2022-08-05T05:44:44.419Z,54.5
2022-08-05T05:45:48.130Z,54.6
2022-08-05T05:46:41.853Z,53.8
2022-08-05T05:48:06.293Z,53.5
2022-08-05T05:48:41.832Z,52.9
2022-08-05T05:49:41.841Z,52.7
2022-08-05T05:50:44.347Z,52.4
2022-08-05T05:51:42.805Z,51.9
2022-08-05T05:52:41.842Z,51.8
2022-08-05T05:53:54.467Z,51.5
2022-08-05T05:54:50.053Z,51.4
2022-08-05T05:55:52.112Z,51.1
2022-08-05T05:56:41.876Z,51
2022-08-05T05:57:42.856Z,51.2
2022-08-05T05:58:41.837Z,50.9
2022-08-05T05:59:41.851Z,50.8
2022-08-05T06:00:41.844Z,50.7
2022-08-05T06:01:57.897Z,50.7
2022-08-05T06:02:41.885Z,50.7
2022-08-05T06:04:00.902Z,50.6
2022-08-05T06:04:41.953Z,50.7
2022-08-05T06:05:41.851Z,50.7
2022-08-05T06:06:42.119Z,50.9
2022-08-05T06:07:42.463Z,50.8
2022-08-05T06:08:41.864Z,50.8
2022-08-05T06:10:01.582Z,50.8
2022-08-05T06:10:49.233Z,50.7
2022-08-05T06:11:41.864Z,51
2022-08-05T06:12:42.293Z,50.8
2022-08-05T06:13:53.609Z,51
2022-08-05T06:14:41.860Z,50.9
2022-08-05T06:16:28.883Z,50.9
2022-08-05T06:16:41.868Z,50.8
2022-08-05T06:17:41.861Z,50.8
2022-08-05T06:18:41.863Z,50.7
2022-08-05T06:19:41.858Z,50.4
2022-08-05T06:20:41.859Z,50.6
2022-08-05T06:21:49.431Z,50.7
2022-08-05T06:22:41.863Z,50.7
2022-08-05T06:23:43.592Z,50.6
2022-08-05T06:24:41.865Z,50.6
2022-08-05T06:26:12.138Z,50.4
2022-08-05T06:26:52.239Z,50.3
2022-08-05T06:28:12.751Z,50.8
2022-08-05T06:28:41.893Z,51.3
2022-08-05T06:29:49.306Z,50.9
2022-08-05T06:30:41.861Z,51.1
2022-08-05T06:31:41.934Z,50.9
2022-08-05T06:32:41.869Z,50.8
2022-08-05T06:34:07.775Z,50.9
2022-08-05T06:34:41.860Z,50.8
2022-08-05T06:36:07.318Z,50.5
2022-08-05T06:36:57.256Z,50.4
2022-08-05T06:37:57.826Z,50.6
2022-08-05T06:38:46.951Z,50.7
2022-08-05T06:39:41.913Z,50.4
2022-08-05T06:40:42.199Z,50.8
2022-08-05T06:41:41.866Z,51.2
2022-08-05T06:42:41.853Z,50.9
2022-08-05T06:43:58.072Z,50.9
2022-08-05T06:44:41.864Z,51.2
2022-08-05T06:45:45.054Z,50.9
2022-08-05T06:46:41.870Z,51.5
2022-08-05T06:48:37.162Z,52.7
2022-08-05T06:48:56.162Z,51.8
2022-08-05T06:50:01.775Z,51.8
2022-08-05T06:50:41.886Z,51.3
2022-08-05T06:51:42.066Z,51.3
2022-08-05T06:52:41.880Z,51.1
2022-08-05T06:53:41.873Z,51.1
2022-08-05T06:54:41.871Z,51.3
2022-08-05T06:55:42.190Z,51.1
2022-08-05T06:56:41.871Z,51.2
2022-08-05T06:57:57.981Z,51.2
2022-08-05T06:58:42.276Z,51.1
2022-08-05T06:59:42.167Z,51.2
2022-08-05T07:00:41.927Z,51.2
2022-08-05T07:01:42.353Z,51.2
2022-08-05T07:02:41.881Z,51.3
2022-08-05T07:03:41.881Z,50.9
2022-08-05T07:04:41.871Z,51
2022-08-05T07:06:41.889Z,51.2
2022-08-05T07:07:43.906Z,51.3
2022-08-05T07:08:42.065Z,51.3
2022-08-05T07:09:43.332Z,51.6
2022-08-05T07:10:52.574Z,51.6
2022-08-05T07:11:43.737Z,51.7
2022-08-05T07:12:41.878Z,51.4
2022-08-05T07:13:58.141Z,51.4
2022-08-05T07:14:41.872Z,51.7
2022-08-05T07:16:00.740Z,51.7
2022-08-05T07:18:00.302Z,52
2022-08-05T07:18:02.049Z,51.9
2022-08-05T07:18:47.913Z,51.8
2022-08-05T07:20:41.882Z,51.9
2022-08-05T07:21:59.330Z,51.8
2022-08-05T07:22:42.333Z,54.6
2022-08-05T07:23:49.794Z,58.5
2022-08-05T07:24:43.885Z,56.1
2022-08-05T07:25:56.094Z,55.4
2022-08-05T07:26:41.888Z,54.6
2022-08-05T07:27:56.390Z,54
2022-08-05T07:28:41.872Z,53.5
2022-08-05T07:30:24.007Z,53.2
2022-08-05T07:30:41.874Z,52.7
2022-08-05T07:31:54.483Z,52.4
2022-08-05T07:32:41.891Z,52.2
2022-08-05T07:33:41.876Z,52
2022-08-05T07:34:42.565Z,52
2022-08-05T07:36:03.087Z,52
2022-08-05T07:36:41.898Z,51.8
2022-08-05T07:37:42.159Z,51.9
2022-08-05T07:38:43.441Z,51.8
2022-08-05T07:40:26.906Z,51.6
2022-08-05T07:40:44.484Z,51.7
2022-08-05T07:42:14.609Z,51.6
2022-08-05T07:42:41.890Z,51.9
2022-08-05T07:43:41.883Z,51.7
2022-08-05T07:44:41.880Z,51.8
2022-08-05T07:45:57.067Z,51.8
2022-08-05T07:46:41.905Z,51.6
2022-08-05T07:47:42.566Z,51.6
2022-08-05T07:49:02.777Z,51.6
2022-08-05T07:49:43.634Z,51.7
2022-08-05T07:50:41.904Z,51.7
2022-08-05T07:51:53.423Z,51.1
2022-08-05T07:52:41.905Z,51.5
2022-08-05T07:53:50.310Z,51.5
2022-08-05T07:54:47.761Z,51.3
2022-08-05T07:56:04.927Z,51.5
2022-08-05T07:57:01.810Z,52.1
2022-08-05T07:57:57.531Z,51.6
2022-08-05T07:58:57.516Z,51.5
2022-08-05T07:59:41.892Z,51.5
2022-08-05T08:00:41.920Z,51.5
2022-08-05T08:01:51.778Z,51.5
2022-08-05T08:03:15.282Z,51.6
2022-08-05T08:03:44.277Z,51.6
2022-08-05T08:04:41.894Z,51.4
2022-08-05T08:05:47.258Z,51.3
2022-08-05T08:06:41.903Z,51.3
2022-08-05T08:07:59.617Z,51.5
2022-08-05T08:08:41.890Z,51.3
2022-08-05T08:09:41.905Z,51.3
2022-08-05T08:10:41.897Z,51.2
2022-08-05T08:11:47.387Z,51.1
2022-08-05T08:12:49.288Z,50.9
2022-08-05T08:13:42.934Z,50.8
2022-08-05T08:14:41.903Z,50.7
2022-08-05T08:16:35.597Z,50.9
2022-08-05T08:16:51.123Z,51
2022-08-05T08:17:50.617Z,51
2022-08-05T08:18:41.898Z,51.1
2022-08-05T08:20:43.058Z,51.1
2022-08-05T08:20:59.728Z,51.1
2022-08-05T08:21:41.900Z,51.2
2022-08-05T08:22:41.914Z,51.3
2022-08-05T08:24:02.764Z,51.3
2022-08-05T08:24:51.605Z,51.3
2022-08-05T08:25:59.945Z,51.4
2022-08-05T08:26:41.911Z,51.5
2022-08-05T08:27:47.349Z,51.7
2022-08-05T08:28:59.555Z,51.9
2022-08-05T08:30:06.461Z,51.7
2022-08-05T08:30:48.000Z,51.8
2022-08-05T08:31:41.909Z,51.7
2022-08-05T08:32:41.935Z,51.6
2022-08-05T08:33:41.903Z,51.6
2022-08-05T08:34:41.923Z,51.6
2022-08-05T08:35:52.853Z,51.5
2022-08-05T08:36:46.354Z,51.7
2022-08-05T08:37:45.126Z,51.7
2022-08-05T08:38:41.916Z,51.7
2022-08-05T08:39:49.349Z,51.6
2022-08-05T08:40:41.908Z,51.6
2022-08-05T08:41:51.663Z,51.9
2022-08-05T08:42:50.984Z,51.8
2022-08-05T08:45:17.857Z,51.9
2022-08-05T08:45:20.792Z,51.9
2022-08-05T08:45:41.932Z,52
2022-08-05T08:46:41.919Z,51.7
2022-08-05T08:48:07.621Z,51.6
2022-08-05T08:49:07.487Z,51.6
2022-08-05T08:50:22.534Z,51.7
2022-08-05T08:51:03.550Z,51.7
2022-08-05T08:52:04.221Z,51.5
2022-08-05T08:52:41.937Z,51.6
2022-08-05T08:53:45.173Z,51.6
2022-08-05T08:54:42.293Z,51.5
2022-08-05T08:56:04.943Z,51.4
2022-08-05T08:56:47.870Z,51.4
2022-08-05T08:57:48.259Z,51.2
2022-08-05T08:58:47.655Z,52
2022-08-05T08:59:47.460Z,53.5
2022-08-05T09:00:42.055Z,53
2022-08-05T09:01:42.649Z,52.5
2022-08-05T09:02:41.913Z,53.7
2022-08-05T09:03:45.215Z,56.2
2022-08-05T09:04:58.213Z,55.4
2022-08-05T09:06:08.501Z,57.7
2022-08-05T09:06:41.934Z,58.1
2022-08-05T09:07:57.748Z,56.9
2022-08-05T09:08:41.920Z,55.6
2022-08-05T09:09:41.913Z,54.7
2022-08-05T09:10:41.916Z,53.9
2022-08-05T09:11:53.472Z,53.7
2022-08-05T09:12:41.983Z,53.4
2022-08-05T09:14:00.937Z,54.6
2022-08-05T09:15:41.932Z,59.2
2022-08-05T09:16:41.935Z,57.2
2022-08-05T09:17:45.744Z,57.1
2022-08-05T09:18:42.916Z,59
2022-08-05T09:19:55.174Z,59.3
2022-08-05T09:20:41.940Z,62.1
2022-08-05T09:22:24.961Z,65.3
2022-08-05T09:22:41.928Z,66.6
2022-08-05T09:23:43.612Z,68.6
2022-08-05T09:24:41.930Z,68.7
2022-08-05T09:26:02.841Z,69.4
2022-08-05T09:26:43.661Z,69.1
2022-08-05T09:28:04.245Z,70.3
2022-08-05T09:28:41.932Z,70.4
2022-08-05T09:29:47.524Z,69.7
2022-08-05T09:30:41.927Z,69.6
2022-08-05T09:32:40.932Z,70.5
2022-08-05T09:32:46.461Z,70.6
2022-08-05T09:33:41.929Z,71
2022-08-05T09:34:41.934Z,71.6
2022-08-05T09:35:41.934Z,72.9
2022-08-05T09:36:54.366Z,73.5
2022-08-05T09:38:12.174Z,72.4
2022-08-05T09:38:41.927Z,72.1
2022-08-05T09:39:45.742Z,71.9
2022-08-05T09:40:51.778Z,72
2022-08-05T09:41:41.938Z,72.4
2022-08-05T09:42:41.965Z,71.6
2022-08-05T09:43:42.316Z,71.1
2022-08-05T09:44:41.926Z,71
2022-08-05T09:46:06.205Z,71.2
2022-08-05T09:46:51.705Z,71.5
2022-08-05T09:47:55.339Z,70.9
2022-08-05T09:48:41.938Z,69.5
2022-08-05T09:50:00.920Z,70.4
2022-08-05T09:50:44.392Z,70.5
2022-08-05T09:51:41.950Z,70.2
2022-08-05T09:52:45.073Z,70.4
2022-08-05T09:53:54.907Z,70.5
2022-08-05T09:54:41.927Z,70.9
2022-08-05T09:55:56.675Z,71.3
2022-08-05T09:56:41.928Z,71.1
2022-08-05T09:57:43.402Z,70.7
2022-08-05T09:58:42.376Z,70.9
2022-08-05T09:59:41.933Z,69.7
2022-08-05T10:00:41.934Z,69.7
2022-08-05T10:01:45.786Z,70
2022-08-05T10:02:42.049Z,68.5
2022-08-05T10:03:59.659Z,68
2022-08-05T10:04:41.932Z,66.1
2022-08-05T10:05:41.926Z,67.4
2022-08-05T10:06:54.694Z,68.2
2022-08-05T10:08:34.465Z,68.6
2022-08-05T10:08:42.435Z,68.6
2022-08-05T10:09:44.836Z,68.1
2022-08-05T10:10:41.942Z,66.5
2022-08-05T10:11:41.937Z,66.3
2022-08-05T10:12:50.087Z,68.1
2022-08-05T10:13:47.772Z,68.7
2022-08-05T10:14:41.936Z,67.4
2022-08-05T10:15:41.941Z,67
2022-08-05T10:16:52.747Z,67
2022-08-05T10:17:47.076Z,65.7
2022-08-05T10:18:41.935Z,65.1
2022-08-05T10:20:03.766Z,65.4
2022-08-05T10:20:41.942Z,65.6
2022-08-05T10:21:41.929Z,66.2
2022-08-05T10:22:48.561Z,65.2
2022-08-05T10:24:00.164Z,66.6
2022-08-05T10:24:41.953Z,66.5
2022-08-05T10:25:41.956Z,66.5
2022-08-05T10:26:51.370Z,66.2
2022-08-05T10:28:13.820Z,66.7
2022-08-05T10:28:42.030Z,66.6
2022-08-05T10:30:06.751Z,67.2
2022-08-05T10:32:53.603Z,64.6
2022-08-05T10:32:53.683Z,64.4
2022-08-05T10:32:54.588Z,65.7
2022-08-05T10:33:41.943Z,64.9
2022-08-05T10:34:41.935Z,64.4
2022-08-05T10:35:44.095Z,63.8
2022-08-05T10:37:44.919Z,64.8
2022-08-05T10:38:44.993Z,65.7
2022-08-05T10:39:58.978Z,65.1
2022-08-05T10:40:43.647Z,66.7
2022-08-05T10:41:45.179Z,67.6
2022-08-05T10:42:43.812Z,68.6
2022-08-05T10:43:41.944Z,67.5
2022-08-05T10:44:42.064Z,67.5
2022-08-05T10:45:42.972Z,66.5
2022-08-05T10:46:41.988Z,66.2
2022-08-05T10:47:42.027Z,66.5
2022-08-05T10:48:52.605Z,66.7
2022-08-05T10:49:48.954Z,66.3
2022-08-05T10:50:41.997Z,66.7
2022-08-05T10:51:53.227Z,66.1
2022-08-05T10:52:49.541Z,65.7
2022-08-05T10:53:42.627Z,66.2
2022-08-05T10:54:47.098Z,66.5
2022-08-05T10:56:05.022Z,66.9
2022-08-05T10:56:41.948Z,67.1
2022-08-05T10:57:44.708Z,69.2
2022-08-05T10:58:48.556Z,70.3
2022-08-05T11:00:03.740Z,68.8
2022-08-05T11:00:42.197Z,70.3
2022-08-05T11:01:54.610Z,70.8
2022-08-05T11:02:43.734Z,71.1
2022-08-05T11:03:42.005Z,70.6
2022-08-05T11:04:41.944Z,71.9
2022-08-05T11:05:41.956Z,72.8
2022-08-05T11:06:41.954Z,73
2022-08-05T11:08:02.752Z,71.5
2022-08-05T11:08:41.960Z,70.1
2022-08-05T11:09:46.243Z,68.4
2022-08-05T11:10:50.027Z,68
2022-08-05T11:11:52.143Z,68.4
2022-08-05T11:12:41.982Z,67.7
2022-08-05T11:13:57.641Z,67.6
2022-08-05T11:16:00.380Z,68.9
2022-08-05T11:16:56.639Z,69.6
2022-08-05T11:17:59.689Z,70.2
2022-08-05T11:18:46.932Z,70.5
2022-08-05T11:20:17.625Z,70
2022-08-05T11:20:44.254Z,69.7
2022-08-05T11:21:49.404Z,69.3
2022-08-05T11:22:42.102Z,69.5
2022-08-05T11:24:02.765Z,70.4
2022-08-05T11:24:41.948Z,70.2
2022-08-05T11:26:04.283Z,68.9
2022-08-05T11:26:43.428Z,68.4
2022-08-05T11:27:51.106Z,68.2
2022-08-05T11:28:41.954Z,67.9
2022-08-05T11:29:41.952Z,67.8
2022-08-05T11:30:41.955Z,67.5
2022-08-05T11:31:58.536Z,68
2022-08-05T11:32:41.972Z,68.7
2022-08-05T11:33:46.273Z,68.8
2022-08-05T11:34:47.429Z,68.4
2022-08-05T11:36:02.912Z,67.1
2022-08-05T11:36:42.984Z,66.9
2022-08-05T11:38:30.299Z,67.4
2022-08-05T11:38:45.929Z,67.4
2022-08-05T11:39:42.021Z,65.8
2022-08-05T11:40:41.959Z,65.9
2022-08-05T11:42:01.202Z,66.3
2022-08-05T11:42:41.965Z,66.3
2022-08-05T11:44:00.890Z,66.5
2022-08-05T11:44:54.124Z,67.3
2022-08-05T11:46:27.345Z,65.4
2022-08-05T11:46:58.217Z,65.2
2022-08-05T11:47:49.582Z,65.4
2022-08-05T11:48:41.977Z,64.1
2022-08-05T11:49:42.827Z,63.8
2022-08-05T11:50:42.158Z,62.4
2022-08-05T11:51:44.756Z,61.9
2022-08-05T11:52:44.154Z,63.1
2022-08-05T11:53:42.101Z,64.1
2022-08-05T11:54:43.551Z,63.6
2022-08-05T11:55:41.980Z,64.1
2022-08-05T11:56:41.962Z,64.7
2022-08-05T11:58:09.203Z,64.3
2022-08-05T11:58:41.958Z,63.4
2022-08-05T11:59:49.737Z,62.4
2022-08-05T12:00:44.482Z,61.5
2022-08-05T12:01:41.959Z,61.4
2022-08-05T12:02:41.994Z,61.9
2022-08-05T12:03:42.045Z,62.2
2022-08-05T12:04:41.985Z,61.8
2022-08-05T12:05:43.553Z,59.8
2022-08-05T12:06:41.972Z,61.4
2022-08-05T12:08:08.864Z,62.2
2022-08-05T12:08:49.803Z,61.9
2022-08-05T12:09:53.434Z,61.7
2022-08-05T12:10:45.801Z,61.5
2022-08-05T12:11:41.967Z,61
2022-08-05T12:12:59.860Z,61.1
2022-08-05T12:13:48.455Z,60.1
2022-08-05T12:14:43.144Z,59.2
2022-08-05T12:15:41.971Z,59.5
2022-08-05T12:16:45.113Z,58.7
2022-08-05T12:18:03.695Z,59.5
2022-08-05T12:18:42.681Z,58.1
2022-08-05T12:20:27.017Z,59.3
2022-08-05T12:20:41.973Z,58.3
2022-08-05T12:21:41.977Z,57.1
2022-08-05T12:22:41.974Z,56.8
2022-08-05T12:23:43.013Z,58.3
2022-08-05T12:24:43.668Z,58.9
2022-08-05T12:25:41.963Z,58
2022-08-05T12:26:44.041Z,57.7
2022-08-05T12:27:52.753Z,58
2022-08-05T12:28:41.954Z,58.5
2022-08-05T12:29:41.962Z,58.6
2022-08-05T12:30:46.155Z,58.7
2022-08-05T12:31:48.277Z,59.8
2022-08-05T12:32:41.991Z,57.2
2022-08-05T12:33:41.958Z,56
2022-08-05T12:34:41.962Z,56.4
2022-08-05T12:35:43.088Z,55.5
2022-08-05T12:36:42.062Z,56.9
2022-08-05T12:37:41.998Z,55.8
2022-08-05T12:38:41.962Z,55
2022-08-05T12:39:42.108Z,54.5
2022-08-05T12:40:43.493Z,53.3
2022-08-05T12:41:43.840Z,53.8
2022-08-05T12:42:41.997Z,54.8
2022-08-05T12:43:42.002Z,53.4
2022-08-05T12:44:41.969Z,54.4
2022-08-05T12:45:49.642Z,54.6
2022-08-05T12:46:45.467Z,52.2
2022-08-05T12:47:43.545Z,52.8
2022-08-05T12:48:41.985Z,53.7
2022-08-05T12:50:04.494Z,53.2
2022-08-05T12:50:42.017Z,53.9
2022-08-05T12:52:14.235Z,54.6
2022-08-05T12:52:42.843Z,54
2022-08-05T12:53:41.977Z,53.7
2022-08-05T12:54:41.984Z,53.3
2022-08-05T12:55:41.964Z,53.5
2022-08-05T12:56:41.962Z,53.9
2022-08-05T12:58:49.458Z,54.2
2022-08-05T12:58:52.249Z,53.8
2022-08-05T13:00:09.015Z,53.2
2022-08-05T13:02:01.884Z,54.6
2022-08-05T13:02:02.596Z,53.6
2022-08-05T13:02:42.039Z,52.1
2022-08-05T13:03:43.312Z,51.9
2022-08-05T13:04:54.563Z,50.7
2022-08-05T13:05:42.087Z,51.1
2022-08-05T13:06:41.987Z,50.7
2022-08-05T13:07:59.042Z,51.6
2022-08-05T13:08:42.007Z,52.5
2022-08-05T13:09:41.973Z,52.3
2022-08-05T13:10:50.268Z,51.4
2022-08-05T13:12:01.921Z,50.6
2022-08-05T13:12:42.681Z,51.4
2022-08-05T13:14:05.324Z,51.6
2022-08-05T13:14:42.077Z,51.1
2022-08-05T13:15:50.508Z,51.1
2022-08-05T13:16:41.973Z,52.4
2022-08-05T13:17:42.590Z,53.8
2022-08-05T13:18:41.980Z,50.6
2022-08-05T13:19:52.688Z,50.9
2022-08-05T13:20:41.977Z,52.4
2022-08-05T13:21:48.233Z,50.8
2022-08-05T13:22:42.011Z,50.9
2022-08-05T13:23:50.621Z,52.4
2022-08-05T13:24:57.748Z,49.9
2022-08-05T13:25:52.079Z,50.6
2022-08-05T13:26:41.988Z,51.1
2022-08-05T13:27:42.269Z,51.5
2022-08-05T13:28:44.107Z,51.2
2022-08-05T13:30:31.555Z,53.1
2022-08-05T13:30:42.007Z,50.6